sensor_id;sensor_type;location;lat;lon;timestamp;temperature;humidity
69598;SHT31;56802;51.184;-115.558;2022-12-18T00:01:32;-15.83;67.87
69598;SHT31;56802;51.184;-115.558;2022-12-18T00:04:04;-15.86;67.57
69598;SHT31;56802;51.184;-115.558;2022-12-18T00:06:42;-15.88;67.47
69598;SHT31;56802;51.184;-115.558;2022-12-18T00:09:10;-15.90;66.68
69598;SHT31;56802;51.184;-115.558;2022-12-18T00:11:39;-15.94;66.71
69598;SHT31;56802;51.184;-115.558;2022-12-18T00:14:10;-15.96;66.69
69598;SHT31;56802;51.184;-115.558;2022-12-18T00:16:42;-16.00;66.87
69598;SHT31;56802;51.184;-115.558;2022-12-18T00:19:13;-16.00;66.92
69598;SHT31;56802;51.184;-115.558;2022-12-18T00:21:43;-16.04;66.67
69598;SHT31;56802;51.184;-115.558;2022-12-18T00:24:11;-16.15;66.63
69598;SHT31;56802;51.184;-115.558;2022-12-18T00:26:40;-16.22;66.66
69598;SHT31;56802;51.184;-115.558;2022-12-18T00:29:12;-16.31;66.76
69598;SHT31;56802;51.184;-115.558;2022-12-18T00:31:41;-16.32;67.05
69598;SHT31;56802;51.184;-115.558;2022-12-18T00:34:11;-16.33;66.90
69598;SHT31;56802;51.184;-115.558;2022-12-18T00:36:40;-16.31;67.22
69598;SHT31;56802;51.184;-115.558;2022-12-18T00:39:10;-16.29;67.51
69598;SHT31;56802;51.184;-115.558;2022-12-18T00:41:39;-16.26;67.21
69598;SHT31;56802;51.184;-115.558;2022-12-18T00:44:26;-16.22;66.94
69598;SHT31;56802;51.184;-115.558;2022-12-18T00:46:54;-16.30;66.08
69598;SHT31;56802;51.184;-115.558;2022-12-18T00:49:22;-16.34;66.60
69598;SHT31;56802;51.184;-115.558;2022-12-18T00:51:51;-16.42;66.13
69598;SHT31;56802;51.184;-115.558;2022-12-18T00:54:19;-16.52;66.02
69598;SHT31;56802;51.184;-115.558;2022-12-18T00:56:48;-16.56;66.32
69598;SHT31;56802;51.184;-115.558;2022-12-18T00:59:17;-16.63;66.62
69598;SHT31;56802;51.184;-115.558;2022-12-18T01:01:46;-16.73;66.32
69598;SHT31;56802;51.184;-115.558;2022-12-18T01:04:14;-16.77;66.43
69598;SHT31;56802;51.184;-115.558;2022-12-18T01:06:43;-16.79;65.91
69598;SHT31;56802;51.184;-115.558;2022-12-18T01:09:12;-16.83;64.92
69598;SHT31;56802;51.184;-115.558;2022-12-18T01:11:41;-16.86;64.53
69598;SHT31;56802;51.184;-115.558;2022-12-18T01:14:09;-16.94;64.28
69598;SHT31;56802;51.184;-115.558;2022-12-18T01:16:38;-17.00;65.67
69598;SHT31;56802;51.184;-115.558;2022-12-18T01:19:06;-17.00;66.22
69598;SHT31;56802;51.184;-115.558;2022-12-18T01:21:35;-17.04;65.74
69598;SHT31;56802;51.184;-115.558;2022-12-18T01:24:04;-17.07;64.93
69598;SHT31;56802;51.184;-115.558;2022-12-18T01:26:33;-17.12;64.24
69598;SHT31;56802;51.184;-115.558;2022-12-18T01:29:02;-17.20;63.66
69598;SHT31;56802;51.184;-115.558;2022-12-18T01:31:31;-17.29;64.29
69598;SHT31;56802;51.184;-115.558;2022-12-18T01:34:01;-17.25;65.17
69598;SHT31;56802;51.184;-115.558;2022-12-18T01:36:33;-17.27;64.69
69598;SHT31;56802;51.184;-115.558;2022-12-18T01:39:05;-17.23;64.00
69598;SHT31;56802;51.184;-115.558;2022-12-18T01:41:38;-17.24;63.79
69598;SHT31;56802;51.184;-115.558;2022-12-18T01:47:44;-17.29;63.61
69598;SHT31;56802;51.184;-115.558;2022-12-18T01:53:17;-17.34;63.92
69598;SHT31;56802;51.184;-115.558;2022-12-18T01:55:54;-17.36;64.61
69598;SHT31;56802;51.184;-115.558;2022-12-18T01:58:30;-17.39;64.73
69598;SHT31;56802;51.184;-115.558;2022-12-18T02:01:30;-17.37;65.00
69598;SHT31;56802;51.184;-115.558;2022-12-18T02:07:07;-17.37;65.10
69598;SHT31;56802;51.184;-115.558;2022-12-18T02:09:54;-17.40;64.63
69598;SHT31;56802;51.184;-115.558;2022-12-18T02:12:42;-17.38;65.02
69598;SHT31;56802;51.184;-115.558;2022-12-18T02:15:31;-17.42;64.95
69598;SHT31;56802;51.184;-115.558;2022-12-18T02:18:37;-17.46;64.41
69598;SHT31;56802;51.184;-115.558;2022-12-18T02:26:59;-17.61;63.96
69598;SHT31;56802;51.184;-115.558;2022-12-18T02:32:28;-17.59;64.63
69598;SHT31;56802;51.184;-115.558;2022-12-18T02:35:12;-17.61;64.26
69598;SHT31;56802;51.184;-115.558;2022-12-18T02:37:46;-17.66;63.83
69598;SHT31;56802;51.184;-115.558;2022-12-18T02:40:15;-17.66;64.08
69598;SHT31;56802;51.184;-115.558;2022-12-18T02:42:46;-17.71;64.40
69598;SHT31;56802;51.184;-115.558;2022-12-18T02:45:15;-17.77;64.61
69598;SHT31;56802;51.184;-115.558;2022-12-18T02:47:45;-17.76;65.30
69598;SHT31;56802;51.184;-115.558;2022-12-18T02:50:19;-17.75;65.97
69598;SHT31;56802;51.184;-115.558;2022-12-18T02:56:29;-17.88;66.56
69598;SHT31;56802;51.184;-115.558;2022-12-18T02:59:39;-17.93;67.72
69598;SHT31;56802;51.184;-115.558;2022-12-18T03:02:29;-17.96;68.26
69598;SHT31;56802;51.184;-115.558;2022-12-18T03:05:21;-17.99;68.92
69598;SHT31;56802;51.184;-115.558;2022-12-18T03:08:34;-17.97;69.22
69598;SHT31;56802;51.184;-115.558;2022-12-18T03:11:11;-18.00;69.12
69598;SHT31;56802;51.184;-115.558;2022-12-18T03:13:43;-17.98;69.30
69598;SHT31;56802;51.184;-115.558;2022-12-18T03:16:27;-18.00;69.04
69598;SHT31;56802;51.184;-115.558;2022-12-18T03:19:01;-18.00;69.34
69598;SHT31;56802;51.184;-115.558;2022-12-18T03:21:46;-18.03;69.23
69598;SHT31;56802;51.184;-115.558;2022-12-18T03:24:23;-18.09;68.93
69598;SHT31;56802;51.184;-115.558;2022-12-18T03:26:57;-18.13;69.20
69598;SHT31;56802;51.184;-115.558;2022-12-18T03:29:44;-18.13;69.38
69598;SHT31;56802;51.184;-115.558;2022-12-18T03:35:30;-18.15;69.34
69598;SHT31;56802;51.184;-115.558;2022-12-18T03:38:06;-18.21;69.24
69598;SHT31;56802;51.184;-115.558;2022-12-18T03:43:51;-18.33;69.18
69598;SHT31;56802;51.184;-115.558;2022-12-18T03:46:38;-18.35;69.49
69598;SHT31;56802;51.184;-115.558;2022-12-18T03:49:17;-18.30;69.74
69598;SHT31;56802;51.184;-115.558;2022-12-18T03:52:23;-18.27;69.39
69598;SHT31;56802;51.184;-115.558;2022-12-18T03:55:40;-18.28;69.16
69598;SHT31;56802;51.184;-115.558;2022-12-18T03:58:11;-18.32;69.24
69598;SHT31;56802;51.184;-115.558;2022-12-18T04:00:46;-18.33;69.38
69598;SHT31;56802;51.184;-115.558;2022-12-18T04:03:19;-18.35;69.31
69598;SHT31;56802;51.184;-115.558;2022-12-18T04:05:52;-18.39;68.88
69598;SHT31;56802;51.184;-115.558;2022-12-18T04:08:24;-18.42;68.89
69598;SHT31;56802;51.184;-115.558;2022-12-18T04:10:54;-18.48;68.87
69598;SHT31;56802;51.184;-115.558;2022-12-18T04:13:33;-18.50;69.05
69598;SHT31;56802;51.184;-115.558;2022-12-18T04:16:05;-18.49;68.88
69598;SHT31;56802;51.184;-115.558;2022-12-18T04:18:34;-18.53;68.17
69598;SHT31;56802;51.184;-115.558;2022-12-18T04:21:03;-18.59;68.26
69598;SHT31;56802;51.184;-115.558;2022-12-18T04:23:31;-18.68;68.15
69598;SHT31;56802;51.184;-115.558;2022-12-18T04:26:00;-18.71;67.90
69598;SHT31;56802;51.184;-115.558;2022-12-18T04:28:28;-18.76;67.98
69598;SHT31;56802;51.184;-115.558;2022-12-18T04:30:56;-18.79;68.00
69598;SHT31;56802;51.184;-115.558;2022-12-18T04:33:25;-18.78;68.02
69598;SHT31;56802;51.184;-115.558;2022-12-18T04:35:53;-18.82;67.52
69598;SHT31;56802;51.184;-115.558;2022-12-18T04:38:21;-18.87;67.07
69598;SHT31;56802;51.184;-115.558;2022-12-18T04:40:49;-18.88;67.09
69598;SHT31;56802;51.184;-115.558;2022-12-18T04:43:18;-18.93;66.88
69598;SHT31;56802;51.184;-115.558;2022-12-18T04:45:47;-18.95;66.93
69598;SHT31;56802;51.184;-115.558;2022-12-18T04:48:18;-19.04;66.31
69598;SHT31;56802;51.184;-115.558;2022-12-18T04:50:47;-19.12;66.37
69598;SHT31;56802;51.184;-115.558;2022-12-18T04:53:15;-19.13;66.64
69598;SHT31;56802;51.184;-115.558;2022-12-18T04:55:44;-19.17;66.85
69598;SHT31;56802;51.184;-115.558;2022-12-18T04:58:12;-19.28;66.93
69598;SHT31;56802;51.184;-115.558;2022-12-18T05:00:41;-19.31;67.07
69598;SHT31;56802;51.184;-115.558;2022-12-18T05:03:09;-19.32;67.40
69598;SHT31;56802;51.184;-115.558;2022-12-18T05:05:37;-19.36;66.78
69598;SHT31;56802;51.184;-115.558;2022-12-18T05:08:06;-19.38;66.83
69598;SHT31;56802;51.184;-115.558;2022-12-18T05:10:36;-19.39;66.56
69598;SHT31;56802;51.184;-115.558;2022-12-18T05:13:04;-19.45;65.93
69598;SHT31;56802;51.184;-115.558;2022-12-18T05:15:33;-19.48;65.93
69598;SHT31;56802;51.184;-115.558;2022-12-18T05:18:02;-19.45;66.32
69598;SHT31;56802;51.184;-115.558;2022-12-18T05:20:31;-19.45;65.98
69598;SHT31;56802;51.184;-115.558;2022-12-18T05:22:59;-19.47;65.80
69598;SHT31;56802;51.184;-115.558;2022-12-18T05:25:28;-19.54;66.00
69598;SHT31;56802;51.184;-115.558;2022-12-18T05:27:56;-19.59;65.26
69598;SHT31;56802;51.184;-115.558;2022-12-18T05:30:25;-19.59;65.37
69598;SHT31;56802;51.184;-115.558;2022-12-18T05:32:54;-19.59;65.68
69598;SHT31;56802;51.184;-115.558;2022-12-18T05:35:23;-19.56;66.12
69598;SHT31;56802;51.184;-115.558;2022-12-18T05:37:51;-19.58;66.13
69598;SHT31;56802;51.184;-115.558;2022-12-18T05:40:20;-19.57;66.22
69598;SHT31;56802;51.184;-115.558;2022-12-18T05:42:48;-19.61;65.86
69598;SHT31;56802;51.184;-115.558;2022-12-18T05:45:17;-19.65;65.79
69598;SHT31;56802;51.184;-115.558;2022-12-18T05:47:45;-19.69;65.88
69598;SHT31;56802;51.184;-115.558;2022-12-18T05:50:13;-19.72;65.76
69598;SHT31;56802;51.184;-115.558;2022-12-18T05:52:42;-19.77;65.41
69598;SHT31;56802;51.184;-115.558;2022-12-18T05:55:13;-19.81;65.49
69598;SHT31;56802;51.184;-115.558;2022-12-18T05:57:42;-19.86;65.72
69598;SHT31;56802;51.184;-115.558;2022-12-18T06:00:11;-19.88;65.66
69598;SHT31;56802;51.184;-115.558;2022-12-18T06:02:40;-19.87;65.77
69598;SHT31;56802;51.184;-115.558;2022-12-18T06:05:09;-19.91;65.46
69598;SHT31;56802;51.184;-115.558;2022-12-18T06:07:37;-19.90;65.83
69598;SHT31;56802;51.184;-115.558;2022-12-18T06:10:06;-19.93;65.20
69598;SHT31;56802;51.184;-115.558;2022-12-18T06:12:35;-19.93;65.50
69598;SHT31;56802;51.184;-115.558;2022-12-18T06:15:04;-19.96;65.73
69598;SHT31;56802;51.184;-115.558;2022-12-18T06:17:33;-19.95;65.56
69598;SHT31;56802;51.184;-115.558;2022-12-18T06:20:03;-20.01;65.13
69598;SHT31;56802;51.184;-115.558;2022-12-18T06:22:33;-20.08;64.45
69598;SHT31;56802;51.184;-115.558;2022-12-18T06:25:02;-20.09;64.82
69598;SHT31;56802;51.184;-115.558;2022-12-18T06:27:31;-20.09;65.13
69598;SHT31;56802;51.184;-115.558;2022-12-18T06:30:00;-20.11;65.08
69598;SHT31;56802;51.184;-115.558;2022-12-18T06:32:30;-20.08;65.21
69598;SHT31;56802;51.184;-115.558;2022-12-18T06:34:58;-20.07;64.55
69598;SHT31;56802;51.184;-115.558;2022-12-18T06:37:26;-20.11;63.94
69598;SHT31;56802;51.184;-115.558;2022-12-18T06:39:55;-20.11;64.37
69598;SHT31;56802;51.184;-115.558;2022-12-18T06:42:23;-20.12;64.64
69598;SHT31;56802;51.184;-115.558;2022-12-18T06:44:55;-20.13;64.52
69598;SHT31;56802;51.184;-115.558;2022-12-18T06:47:23;-20.20;63.83
69598;SHT31;56802;51.184;-115.558;2022-12-18T06:49:52;-20.17;64.59
69598;SHT31;56802;51.184;-115.558;2022-12-18T06:52:23;-20.20;64.86
69598;SHT31;56802;51.184;-115.558;2022-12-18T06:54:51;-20.21;64.90
69598;SHT31;56802;51.184;-115.558;2022-12-18T06:57:19;-20.24;64.83
69598;SHT31;56802;51.184;-115.558;2022-12-18T06:59:48;-20.23;65.30
69598;SHT31;56802;51.184;-115.558;2022-12-18T07:02:16;-20.25;65.17
69598;SHT31;56802;51.184;-115.558;2022-12-18T07:04:44;-20.27;65.24
69598;SHT31;56802;51.184;-115.558;2022-12-18T07:07:12;-20.22;65.70
69598;SHT31;56802;51.184;-115.558;2022-12-18T07:09:40;-20.18;65.62
69598;SHT31;56802;51.184;-115.558;2022-12-18T07:12:09;-20.22;65.76
69598;SHT31;56802;51.184;-115.558;2022-12-18T07:14:38;-20.33;65.71
69598;SHT31;56802;51.184;-115.558;2022-12-18T07:17:07;-20.34;65.52
69598;SHT31;56802;51.184;-115.558;2022-12-18T07:19:35;-20.35;66.05
69598;SHT31;56802;51.184;-115.558;2022-12-18T07:22:04;-20.41;66.71
69598;SHT31;56802;51.184;-115.558;2022-12-18T07:24:33;-20.40;66.91
69598;SHT31;56802;51.184;-115.558;2022-12-18T07:27:02;-20.35;67.42
69598;SHT31;56802;51.184;-115.558;2022-12-18T07:29:33;-20.32;67.63
69598;SHT31;56802;51.184;-115.558;2022-12-18T07:32:02;-20.35;67.54
69598;SHT31;56802;51.184;-115.558;2022-12-18T07:34:30;-20.41;68.14
69598;SHT31;56802;51.184;-115.558;2022-12-18T07:36:58;-20.43;68.39
69598;SHT31;56802;51.184;-115.558;2022-12-18T07:39:27;-20.49;68.33
69598;SHT31;56802;51.184;-115.558;2022-12-18T07:41:55;-20.43;69.02
69598;SHT31;56802;51.184;-115.558;2022-12-18T07:44:42;-20.40;69.18
69598;SHT31;56802;51.184;-115.558;2022-12-18T07:47:11;-20.42;68.92
69598;SHT31;56802;51.184;-115.558;2022-12-18T07:49:39;-20.44;68.64
69598;SHT31;56802;51.184;-115.558;2022-12-18T07:52:07;-20.46;68.77
69598;SHT31;56802;51.184;-115.558;2022-12-18T07:54:36;-20.46;68.92
69598;SHT31;56802;51.184;-115.558;2022-12-18T07:57:05;-20.50;68.73
69598;SHT31;56802;51.184;-115.558;2022-12-18T07:59:54;-20.51;69.05
69598;SHT31;56802;51.184;-115.558;2022-12-18T08:02:23;-20.52;68.69
69598;SHT31;56802;51.184;-115.558;2022-12-18T08:04:51;-20.57;69.21
69598;SHT31;56802;51.184;-115.558;2022-12-18T08:07:20;-20.58;70.75
69598;SHT31;56802;51.184;-115.558;2022-12-18T08:09:49;-20.58;71.32
69598;SHT31;56802;51.184;-115.558;2022-12-18T08:12:17;-20.53;72.04
69598;SHT31;56802;51.184;-115.558;2022-12-18T08:14:45;-20.47;72.61
69598;SHT31;56802;51.184;-115.558;2022-12-18T08:17:14;-20.47;72.43
69598;SHT31;56802;51.184;-115.558;2022-12-18T08:19:43;-20.46;72.05
69598;SHT31;56802;51.184;-115.558;2022-12-18T08:22:11;-20.47;71.78
69598;SHT31;56802;51.184;-115.558;2022-12-18T08:24:42;-20.49;71.71
69598;SHT31;56802;51.184;-115.558;2022-12-18T08:27:10;-20.48;71.53
69598;SHT31;56802;51.184;-115.558;2022-12-18T08:29:55;-20.50;71.19
69598;SHT31;56802;51.184;-115.558;2022-12-18T08:32:25;-20.52;70.94
69598;SHT31;56802;51.184;-115.558;2022-12-18T08:34:54;-20.56;70.40
69598;SHT31;56802;51.184;-115.558;2022-12-18T08:37:24;-20.56;70.22
69598;SHT31;56802;51.184;-115.558;2022-12-18T08:39:52;-20.62;69.47
69598;SHT31;56802;51.184;-115.558;2022-12-18T08:42:21;-20.66;69.58
69598;SHT31;56802;51.184;-115.558;2022-12-18T08:45:08;-20.64;69.44
69598;SHT31;56802;51.184;-115.558;2022-12-18T08:47:36;-20.69;69.41
69598;SHT31;56802;51.184;-115.558;2022-12-18T08:50:05;-20.76;69.33
69598;SHT31;56802;51.184;-115.558;2022-12-18T08:52:34;-20.72;69.62
69598;SHT31;56802;51.184;-115.558;2022-12-18T08:55:02;-20.69;69.59
69598;SHT31;56802;51.184;-115.558;2022-12-18T08:57:32;-20.69;69.32
69598;SHT31;56802;51.184;-115.558;2022-12-18T09:00:00;-20.72;68.72
69598;SHT31;56802;51.184;-115.558;2022-12-18T09:02:28;-20.72;68.55
69598;SHT31;56802;51.184;-115.558;2022-12-18T09:04:57;-20.76;68.63
69598;SHT31;56802;51.184;-115.558;2022-12-18T09:07:25;-20.82;68.88
69598;SHT31;56802;51.184;-115.558;2022-12-18T09:09:54;-20.82;69.26
69598;SHT31;56802;51.184;-115.558;2022-12-18T09:12:22;-20.82;69.42
69598;SHT31;56802;51.184;-115.558;2022-12-18T09:14:51;-20.79;69.42
69598;SHT31;56802;51.184;-115.558;2022-12-18T09:17:19;-20.75;69.25
69598;SHT31;56802;51.184;-115.558;2022-12-18T09:19:47;-20.72;69.09
69598;SHT31;56802;51.184;-115.558;2022-12-18T09:22:16;-20.80;69.06
69598;SHT31;56802;51.184;-115.558;2022-12-18T09:24:44;-20.83;69.10
69598;SHT31;56802;51.184;-115.558;2022-12-18T09:27:13;-20.87;68.53
69598;SHT31;56802;51.184;-115.558;2022-12-18T09:29:41;-20.88;68.62
69598;SHT31;56802;51.184;-115.558;2022-12-18T09:32:10;-20.92;68.42
69598;SHT31;56802;51.184;-115.558;2022-12-18T09:34:44;-20.94;68.10
69598;SHT31;56802;51.184;-115.558;2022-12-18T09:37:12;-20.93;68.31
69598;SHT31;56802;51.184;-115.558;2022-12-18T09:39:41;-20.89;68.65
69598;SHT31;56802;51.184;-115.558;2022-12-18T09:42:12;-20.89;68.22
69598;SHT31;56802;51.184;-115.558;2022-12-18T09:44:50;-20.92;68.09
69598;SHT31;56802;51.184;-115.558;2022-12-18T09:50:02;-20.96;68.52
69598;SHT31;56802;51.184;-115.558;2022-12-18T09:52:48;-20.93;68.11
69598;SHT31;56802;51.184;-115.558;2022-12-18T09:55:30;-20.91;67.67
69598;SHT31;56802;51.184;-115.558;2022-12-18T09:58:50;-20.96;67.26
69598;SHT31;56802;51.184;-115.558;2022-12-18T10:01:21;-21.03;67.38
69598;SHT31;56802;51.184;-115.558;2022-12-18T10:03:56;-21.07;67.50
69598;SHT31;56802;51.184;-115.558;2022-12-18T10:06:32;-21.08;67.65
69598;SHT31;56802;51.184;-115.558;2022-12-18T10:09:15;-21.10;67.54
69598;SHT31;56802;51.184;-115.558;2022-12-18T10:15:47;-21.05;67.50
69598;SHT31;56802;51.184;-115.558;2022-12-18T10:18:31;-21.08;66.95
69598;SHT31;56802;51.184;-115.558;2022-12-18T10:27:11;-21.16;66.61
69598;SHT31;56802;51.184;-115.558;2022-12-18T10:29:49;-21.14;66.86
69598;SHT31;56802;51.184;-115.558;2022-12-18T10:32:22;-21.13;66.69
69598;SHT31;56802;51.184;-115.558;2022-12-18T10:34:57;-21.17;66.46
69598;SHT31;56802;51.184;-115.558;2022-12-18T10:37:28;-21.18;66.60
69598;SHT31;56802;51.184;-115.558;2022-12-18T10:40:11;-21.12;66.87
69598;SHT31;56802;51.184;-115.558;2022-12-18T10:43:34;-21.12;67.11
69598;SHT31;56802;51.184;-115.558;2022-12-18T10:45:42;-21.15;66.48
69598;SHT31;56802;51.184;-115.558;2022-12-18T10:49:01;-21.14;66.64
69598;SHT31;56802;51.184;-115.558;2022-12-18T10:51:34;-21.16;67.09
69598;SHT31;56802;51.184;-115.558;2022-12-18T10:54:07;-21.17;67.39
69598;SHT31;56802;51.184;-115.558;2022-12-18T10:56:49;-21.17;67.34
69598;SHT31;56802;51.184;-115.558;2022-12-18T10:59:19;-21.19;66.72
69598;SHT31;56802;51.184;-115.558;2022-12-18T11:04:30;-21.21;67.04
69598;SHT31;56802;51.184;-115.558;2022-12-18T11:07:05;-21.19;66.89
69598;SHT31;56802;51.184;-115.558;2022-12-18T11:09:40;-21.22;67.04
69598;SHT31;56802;51.184;-115.558;2022-12-18T11:12:18;-21.23;67.21
69598;SHT31;56802;51.184;-115.558;2022-12-18T11:14:50;-21.20;67.51
69598;SHT31;56802;51.184;-115.558;2022-12-18T11:20:05;-21.24;67.88
69598;SHT31;56802;51.184;-115.558;2022-12-18T11:22:56;-21.26;68.30
69598;SHT31;56802;51.184;-115.558;2022-12-18T11:25:32;-21.24;68.32
69598;SHT31;56802;51.184;-115.558;2022-12-18T11:28:06;-21.22;68.60
69598;SHT31;56802;51.184;-115.558;2022-12-18T11:31:21;-21.17;69.16
69598;SHT31;56802;51.184;-115.558;2022-12-18T11:36:47;-21.19;69.09
69598;SHT31;56802;51.184;-115.558;2022-12-18T11:39:18;-21.15;69.52
69598;SHT31;56802;51.184;-115.558;2022-12-18T11:42:37;-21.15;69.50
69598;SHT31;56802;51.184;-115.558;2022-12-18T11:45:32;-21.21;69.28
69598;SHT31;56802;51.184;-115.558;2022-12-18T11:51:02;-21.21;69.32
69598;SHT31;56802;51.184;-115.558;2022-12-18T11:53:37;-21.25;69.11
69598;SHT31;56802;51.184;-115.558;2022-12-18T12:01:56;-21.31;68.73
69598;SHT31;56802;51.184;-115.558;2022-12-18T12:10:38;-21.32;69.25
69598;SHT31;56802;51.184;-115.558;2022-12-18T12:16:50;-21.28;69.87
69598;SHT31;56802;51.184;-115.558;2022-12-18T12:25:42;-21.47;70.05
69598;SHT31;56802;51.184;-115.558;2022-12-18T12:31:33;-21.45;70.25
69598;SHT31;56802;51.184;-115.558;2022-12-18T12:34:20;-21.43;70.01
69598;SHT31;56802;51.184;-115.558;2022-12-18T12:39:40;-21.45;69.84
69598;SHT31;56802;51.184;-115.558;2022-12-18T12:42:15;-21.44;69.86
69598;SHT31;56802;51.184;-115.558;2022-12-18T12:45:14;-21.40;70.14
69598;SHT31;56802;51.184;-115.558;2022-12-18T12:47:55;-21.36;69.65
69598;SHT31;56802;51.184;-115.558;2022-12-18T12:50:26;-21.33;69.68
69598;SHT31;56802;51.184;-115.558;2022-12-18T12:53:00;-21.33;69.77
69598;SHT31;56802;51.184;-115.558;2022-12-18T12:55:34;-21.41;69.38
69598;SHT31;56802;51.184;-115.558;2022-12-18T13:01:18;-21.39;69.46
69598;SHT31;56802;51.184;-115.558;2022-12-18T13:07:16;-21.42;69.61
69598;SHT31;56802;51.184;-115.558;2022-12-18T13:15:50;-21.51;69.12
69598;SHT31;56802;51.184;-115.558;2022-12-18T13:18:37;-21.47;69.54
69598;SHT31;56802;51.184;-115.558;2022-12-18T13:21:17;-21.44;69.23
69598;SHT31;56802;51.184;-115.558;2022-12-18T13:23:54;-21.43;69.04
69598;SHT31;56802;51.184;-115.558;2022-12-18T13:26:28;-21.48;68.86
69598;SHT31;56802;51.184;-115.558;2022-12-18T13:29:02;-21.52;68.72
69598;SHT31;56802;51.184;-115.558;2022-12-18T13:36:53;-21.48;69.01
69598;SHT31;56802;51.184;-115.558;2022-12-18T13:39:43;-21.44;69.05
69598;SHT31;56802;51.184;-115.558;2022-12-18T13:45:01;-21.53;68.17
69598;SHT31;56802;51.184;-115.558;2022-12-18T13:47:49;-21.54;68.38
69598;SHT31;56802;51.184;-115.558;2022-12-18T13:50:23;-21.51;68.58
69598;SHT31;56802;51.184;-115.558;2022-12-18T13:53:01;-21.57;68.45
69598;SHT31;56802;51.184;-115.558;2022-12-18T13:55:32;-21.59;68.80
69598;SHT31;56802;51.184;-115.558;2022-12-18T13:58:05;-21.59;68.68
69598;SHT31;56802;51.184;-115.558;2022-12-18T14:00:33;-21.59;68.99
69598;SHT31;56802;51.184;-115.558;2022-12-18T14:03:15;-21.58;69.19
69598;SHT31;56802;51.184;-115.558;2022-12-18T14:05:58;-21.59;69.21
69598;SHT31;56802;51.184;-115.558;2022-12-18T14:08:42;-21.56;69.50
69598;SHT31;56802;51.184;-115.558;2022-12-18T14:11:18;-21.55;69.48
69598;SHT31;56802;51.184;-115.558;2022-12-18T14:13:52;-21.56;69.44
69598;SHT31;56802;51.184;-115.558;2022-12-18T14:16:20;-21.56;69.41
69598;SHT31;56802;51.184;-115.558;2022-12-18T14:18:56;-21.58;69.30
69598;SHT31;56802;51.184;-115.558;2022-12-18T14:21:44;-21.58;69.37
69598;SHT31;56802;51.184;-115.558;2022-12-18T14:26:48;-21.59;68.91
69598;SHT31;56802;51.184;-115.558;2022-12-18T14:32:09;-21.63;68.71
69598;SHT31;56802;51.184;-115.558;2022-12-18T14:34:45;-21.73;68.56
69598;SHT31;56802;51.184;-115.558;2022-12-18T14:37:22;-21.73;69.23
69598;SHT31;56802;51.184;-115.558;2022-12-18T14:39:57;-21.75;69.12
69598;SHT31;56802;51.184;-115.558;2022-12-18T14:42:36;-21.77;68.89
69598;SHT31;56802;51.184;-115.558;2022-12-18T14:48:11;-21.77;68.66
69598;SHT31;56802;51.184;-115.558;2022-12-18T14:50:56;-21.79;68.47
69598;SHT31;56802;51.184;-115.558;2022-12-18T14:53:35;-21.78;68.66
69598;SHT31;56802;51.184;-115.558;2022-12-18T14:56:21;-21.75;68.60
69598;SHT31;56802;51.184;-115.558;2022-12-18T14:58:55;-21.74;68.08
69598;SHT31;56802;51.184;-115.558;2022-12-18T15:04:46;-21.83;67.41
69598;SHT31;56802;51.184;-115.558;2022-12-18T15:07:26;-21.87;67.40
69598;SHT31;56802;51.184;-115.558;2022-12-18T15:18:09;-21.93;67.08
69598;SHT31;56802;51.184;-115.558;2022-12-18T15:20:53;-21.92;67.41
69598;SHT31;56802;51.184;-115.558;2022-12-18T15:23:38;-21.94;67.14
69598;SHT31;56802;51.184;-115.558;2022-12-18T15:26:13;-21.98;66.74
69598;SHT31;56802;51.184;-115.558;2022-12-18T15:28:54;-21.94;66.99
69598;SHT31;56802;51.184;-115.558;2022-12-18T15:31:29;-21.93;67.00
69598;SHT31;56802;51.184;-115.558;2022-12-18T15:34:19;-21.94;67.15
69598;SHT31;56802;51.184;-115.558;2022-12-18T15:36:50;-21.95;67.37
69598;SHT31;56802;51.184;-115.558;2022-12-18T15:39:19;-21.95;67.08
69598;SHT31;56802;51.184;-115.558;2022-12-18T15:41:47;-21.99;66.91
69598;SHT31;56802;51.184;-115.558;2022-12-18T15:44:34;-21.96;67.07
69598;SHT31;56802;51.184;-115.558;2022-12-18T15:47:03;-22.01;65.96
69598;SHT31;56802;51.184;-115.558;2022-12-18T15:49:40;-22.04;65.80
69598;SHT31;56802;51.184;-115.558;2022-12-18T15:52:08;-22.09;65.93
69598;SHT31;56802;51.184;-115.558;2022-12-18T15:54:40;-22.07;66.42
69598;SHT31;56802;51.184;-115.558;2022-12-18T15:57:27;-22.09;66.54
69598;SHT31;56802;51.184;-115.558;2022-12-18T15:59:55;-22.12;66.38
69598;SHT31;56802;51.184;-115.558;2022-12-18T16:02:25;-22.12;66.80
69598;SHT31;56802;51.184;-115.558;2022-12-18T16:04:55;-22.12;66.94
69598;SHT31;56802;51.184;-115.558;2022-12-18T16:07:23;-22.15;66.57
69598;SHT31;56802;51.184;-115.558;2022-12-18T16:09:56;-22.15;67.11
69598;SHT31;56802;51.184;-115.558;2022-12-18T16:12:28;-22.18;67.09
69598;SHT31;56802;51.184;-115.558;2022-12-18T16:14:56;-22.25;66.80
69598;SHT31;56802;51.184;-115.558;2022-12-18T16:17:24;-22.31;67.20
69598;SHT31;56802;51.184;-115.558;2022-12-18T16:19:52;-22.34;67.05
69598;SHT31;56802;51.184;-115.558;2022-12-18T16:22:21;-22.34;67.38
69598;SHT31;56802;51.184;-115.558;2022-12-18T16:24:55;-22.31;67.63
69598;SHT31;56802;51.184;-115.558;2022-12-18T16:27:24;-22.30;67.43
69598;SHT31;56802;51.184;-115.558;2022-12-18T16:29:53;-22.29;67.12
69598;SHT31;56802;51.184;-115.558;2022-12-18T16:32:21;-22.30;66.92
69598;SHT31;56802;51.184;-115.558;2022-12-18T16:34:50;-22.29;67.03
69598;SHT31;56802;51.184;-115.558;2022-12-18T16:37:18;-22.31;66.83
69598;SHT31;56802;51.184;-115.558;2022-12-18T16:39:47;-22.33;66.90
69598;SHT31;56802;51.184;-115.558;2022-12-18T16:42:16;-22.33;66.90
69598;SHT31;56802;51.184;-115.558;2022-12-18T16:44:47;-22.30;67.09
69598;SHT31;56802;51.184;-115.558;2022-12-18T16:47:16;-22.25;66.96
69598;SHT31;56802;51.184;-115.558;2022-12-18T16:49:45;-22.28;66.76
69598;SHT31;56802;51.184;-115.558;2022-12-18T16:52:18;-22.35;66.82
69598;SHT31;56802;51.184;-115.558;2022-12-18T16:54:46;-22.35;67.14
69598;SHT31;56802;51.184;-115.558;2022-12-18T16:57:16;-22.32;67.16
69598;SHT31;56802;51.184;-115.558;2022-12-18T16:59:51;-22.28;66.96
69598;SHT31;56802;51.184;-115.558;2022-12-18T17:02:24;-22.23;66.79
69598;SHT31;56802;51.184;-115.558;2022-12-18T17:04:55;-22.20;66.44
69598;SHT31;56802;51.184;-115.558;2022-12-18T17:07:25;-22.18;66.54
69598;SHT31;56802;51.184;-115.558;2022-12-18T17:09:54;-22.20;66.61
69598;SHT31;56802;51.184;-115.558;2022-12-18T17:12:23;-22.22;66.86
69598;SHT31;56802;51.184;-115.558;2022-12-18T17:14:52;-22.21;66.93